Time;durP1;ratioP1;P1;durP2;ratioP2;P2;SDS_P1;SDS_P2;PMS_P1;PMS_P2;Temp;Humidity;BMP_temperature;BMP_pressure;BME280_temperature;BME280_humidity;BME280_pressure;Samples;Min_cycle;Max_cycle;Signal;HPM_P1;HPM_P2
2021/06/29 00:01:09;;;;;;;8.97;8.37;;;23.20;1.00;;;;;;5069750;28;20412;-76
2021/06/29 00:03:36;;;;;;;9.70;8.90;;;23.20;1.00;;;;;;5063932;28;20851;-76
2021/06/29 00:06:03;;;;;;;9.07;8.40;;;23.10;1.00;;;;;;5067658;28;21383;-76
2021/06/29 00:08:31;;;;;;;9.53;8.83;;;23.10;1.00;;;;;;5061676;28;20457;-76
2021/06/29 00:10:58;;;;;;;10.47;9.57;;;23.10;1.00;;;;;;5067862;28;20446;-76
2021/06/29 00:13:24;;;;;;;9.33;8.63;;;23.10;1.00;;;;;;5061388;28;20502;-76
2021/06/29 00:15:51;;;;;;;9.57;8.60;;;23.00;1.00;;;;;;5070038;28;20549;-76
2021/06/29 00:18:18;;;;;;;9.70;8.70;;;23.00;1.00;;;;;;5063196;28;20465;-76
2021/06/29 00:20:45;;;;;;;10.13;9.33;;;23.00;1.00;;;;;;5074900;28;20451;-76
2021/06/29 00:23:11;;;;;;;9.67;8.73;;;23.00;1.00;;;;;;5065506;28;20457;-75
2021/06/29 00:25:40;;;;;;;10.03;9.33;;;23.00;1.00;;;;;;5063336;28;20835;-76
2021/06/29 00:28:06;;;;;;;9.90;9.20;;;22.90;1.00;;;;;;5074835;28;20483;-76
2021/06/29 00:30:33;;;;;;;9.20;8.50;;;22.90;1.00;;;;;;5070141;28;20463;-76
2021/06/29 00:33:00;;;;;;;9.67;8.87;;;22.80;1.00;;;;;;5066557;28;20423;-76
2021/06/29 00:35:27;;;;;;;9.70;8.90;;;22.80;1.00;;;;;;5066577;28;20533;-76
2021/06/29 00:37:53;;;;;;;10.10;9.30;;;22.80;1.00;;;;;;5067458;28;20462;-76
2021/06/29 00:40:20;;;;;;;9.80;9.10;;;22.70;1.00;;;;;;5064557;28;20455;-76
2021/06/29 00:42:48;;;;;;;10.13;9.33;;;22.70;1.00;;;;;;5058510;28;20455;-75
2021/06/29 00:45:15;;;;;;;9.50;8.60;;;22.70;1.00;;;;;;5059519;28;20453;-75
2021/06/29 00:47:42;;;;;;;11.20;8.80;;;22.70;1.00;;;;;;5074042;28;20465;-76
2021/06/29 00:50:10;;;;;;;9.23;8.63;;;22.60;1.00;;;;;;5063611;28;20942;-75
2021/06/29 00:52:41;;;;;;;10.93;10.13;;;22.60;1.00;;;;;;5076846;28;20469;-75
2021/06/29 00:55:11;;;;;;;10.73;9.93;;;22.50;1.00;;;;;;5073386;28;21166;-75
2021/06/29 00:57:38;;;;;;;11.30;10.40;;;22.50;1.00;;;;;;5074463;28;20442;-76
2021/06/29 01:00:08;;;;;;;12.37;11.43;;;22.40;1.00;;;;;;5079001;28;20483;-76
2021/06/29 01:02:34;;;;;;;10.10;9.50;;;22.40;1.00;;;;;;5081921;28;20450;-77
2021/06/29 01:05:04;;;;;;;10.20;9.30;;;22.40;1.00;;;;;;5075264;28;20520;-76
2021/06/29 01:07:30;;;;;;;10.93;10.13;;;22.30;1.00;;;;;;5095662;28;20445;-75
2021/06/29 01:09:57;;;;;;;11.50;10.60;;;22.30;1.00;;;;;;5101698;28;20426;-76
2021/06/29 01:12:24;;;;;;;11.13;10.10;;;22.30;1.00;;;;;;5099234;27;20497;-76
2021/06/29 01:14:51;;;;;;;10.80;10.00;;;22.20;1.00;;;;;;5096645;27;20391;-78
2021/06/29 01:17:22;;;;;;;9.60;8.90;;;22.20;1.00;;;;;;5098403;27;20422;-75
2021/06/29 01:19:50;;;;;;;10.97;10.17;;;22.10;1.00;;;;;;5101729;28;20494;-75
2021/06/29 01:22:19;;;;;;;10.57;9.67;;;22.10;1.00;;;;;;5086434;28;20455;-75
2021/06/29 01:24:50;;;;;;;10.50;9.63;;;22.10;1.00;;;;;;5079406;28;20450;-75
2021/06/29 01:27:29;;;;;;;10.10;9.40;;;22.10;1.00;;;;;;5088941;27;20418;-76
2021/06/29 01:32:40;;;;;;;10.37;9.63;;;22.00;1.00;;;;;;5098928;27;20414;-76
2021/06/29 01:35:09;;;;;;;11.17;10.37;;;22.00;1.00;;;;;;5101663;28;20451;-74
2021/06/29 01:37:37;;;;;;;10.07;9.30;;;21.90;1.00;;;;;;5096845;28;20453;-76
2021/06/29 01:40:08;;;;;;;11.37;10.30;;;21.90;1.00;;;;;;5097119;28;20473;-76
2021/06/29 01:42:35;;;;;;;11.40;10.40;;;21.90;1.00;;;;;;5094476;28;20416;-75
2021/06/29 01:45:02;;;;;;;10.07;9.17;;;21.90;1.00;;;;;;5094869;27;20423;-75
2021/06/29 01:47:35;;;;;;;10.30;9.50;;;21.90;1.00;;;;;;5092402;27;20474;-75
2021/06/29 01:50:08;;;;;;;11.27;10.40;;;21.90;1.00;;;;;;5084485;27;20425;-74
2021/06/29 01:52:35;;;;;;;11.40;10.37;;;21.90;1.00;;;;;;5089832;28;20516;-75
2021/06/29 01:55:03;;;;;;;11.23;10.23;;;22.00;1.00;;;;;;5080791;28;20471;-75
2021/06/29 01:57:29;;;;;;;11.07;10.20;;;21.90;1.00;;;;;;5085244;28;20453;-75
2021/06/29 01:59:56;;;;;;;11.20;10.40;;;21.90;1.00;;;;;;5089098;28;20420;-76
2021/06/29 02:02:23;;;;;;;9.83;9.00;;;21.90;1.00;;;;;;5088586;28;20567;-75
2021/06/29 02:04:49;;;;;;;11.03;10.23;;;21.90;1.00;;;;;;5093838;28;20465;-75
2021/06/29 02:07:16;;;;;;;12.00;11.03;;;21.90;1.00;;;;;;5088772;28;20421;-76
2021/06/29 02:09:42;;;;;;;11.37;10.43;;;21.90;1.00;;;;;;5091872;28;20465;-74
2021/06/29 02:12:11;;;;;;;11.90;10.90;;;21.90;1.00;;;;;;5090367;28;20442;-75
2021/06/29 02:14:38;;;;;;;11.83;10.93;;;21.90;1.00;;;;;;5095583;28;20512;-77
2021/06/29 02:17:05;;;;;;;10.90;10.10;;;21.90;1.00;;;;;;5087502;28;20449;-76
2021/06/29 02:19:31;;;;;;;11.83;10.87;;;21.90;1.00;;;;;;5093579;28;20404;-75
2021/06/29 02:21:58;;;;;;;11.87;10.83;;;21.90;1.00;;;;;;5082320;28;20434;-75
2021/06/29 02:24:25;;;;;;;11.33;10.43;;;21.90;1.00;;;;;;5080440;28;20774;-75
2021/06/29 02:26:51;;;;;;;11.33;10.43;;;21.90;1.00;;;;;;5063299;28;21001;-76
2021/06/29 02:29:19;;;;;;;11.80;10.80;;;21.90;1.00;;;;;;5072459;28;20470;-76
2021/06/29 02:31:46;;;;;;;11.50;10.43;;;21.90;1.00;;;;;;5063732;28;20450;-76
2021/06/29 02:34:13;;;;;;;12.90;11.60;;;21.90;1.00;;;;;;5067447;28;20441;-76
2021/06/29 02:36:39;;;;;;;11.97;11.07;;;21.90;1.00;;;;;;5064386;28;20482;-76
2021/06/29 02:39:06;;;;;;;11.00;10.20;;;21.90;1.00;;;;;;5059152;28;21367;-76
2021/06/29 02:41:33;;;;;;;12.43;11.37;;;21.90;1.00;;;;;;5069393;28;20470;-75
2021/06/29 02:44:00;;;;;;;13.87;12.47;;;22.00;1.00;;;;;;5067060;28;20650;-76
2021/06/29 02:46:28;;;;;;;11.20;10.30;;;22.00;1.00;;;;;;5069408;28;20432;-76
2021/06/29 02:48:56;;;;;;;12.07;11.03;;;22.00;1.00;;;;;;5058126;28;20523;-76
2021/06/29 02:51:23;;;;;;;11.67;10.67;;;22.00;1.00;;;;;;5074639;28;20518;-75
2021/06/29 02:53:49;;;;;;;12.77;11.77;;;22.00;1.00;;;;;;5061607;28;20423;-76
2021/06/29 02:58:59;;;;;;;13.43;12.03;;;22.00;1.00;;;;;;5065368;28;20433;-76
2021/06/29 03:01:26;;;;;;;13.33;12.13;;;22.00;1.00;;;;;;5078530;28;20527;-76
2021/06/29 03:03:53;;;;;;;12.23;11.23;;;22.00;1.00;;;;;;5070038;28;20447;-76
2021/06/29 03:06:20;;;;;;;12.70;11.60;;;22.10;1.00;;;;;;5067875;28;20465;-76
2021/06/29 03:08:47;;;;;;;12.23;11.17;;;22.00;1.00;;;;;;5065365;28;20510;-75
2021/06/29 03:11:14;;;;;;;12.00;11.10;;;22.10;1.00;;;;;;5066500;28;20475;-76
2021/06/29 03:13:40;;;;;;;12.10;11.10;;;22.10;1.00;;;;;;5064882;28;20461;-76
2021/06/29 03:16:07;;;;;;;11.93;10.97;;;22.10;1.00;;;;;;5069000;28;20456;-76
2021/06/29 03:18:34;;;;;;;12.80;11.90;;;22.20;1.00;;;;;;5067700;28;20441;-76
2021/06/29 03:21:02;;;;;;;12.47;11.37;;;22.20;1.00;;;;;;5062451;28;20458;-76
2021/06/29 03:23:29;;;;;;;12.87;11.77;;;22.20;1.00;;;;;;5068299;28;20533;-76
2021/06/29 03:25:55;;;;;;;12.77;11.67;;;22.20;1.00;;;;;;5058599;28;21240;-76
2021/06/29 03:28:22;;;;;;;12.57;11.60;;;22.20;1.00;;;;;;5071514;28;20417;-76
2021/06/29 03:30:49;;;;;;;12.93;11.93;;;22.20;1.00;;;;;;5060419;28;20889;-74
2021/06/29 03:33:15;;;;;;;12.70;11.50;;;22.20;1.00;;;;;;5072795;28;20461;-75
2021/06/29 03:35:42;;;;;;;12.97;11.87;;;22.20;1.00;;;;;;5061908;28;20453;-75
2021/06/29 03:38:10;;;;;;;13.30;12.10;;;22.20;1.00;;;;;;5068290;28;20455;-76
2021/06/29 03:40:36;;;;;;;12.33;11.30;;;22.20;1.00;;;;;;5068425;28;20468;-76
2021/06/29 03:43:04;;;;;;;14.10;12.60;;;22.20;1.00;;;;;;5062218;28;21174;-77
2021/06/29 03:45:31;;;;;;;13.63;12.30;;;22.20;1.00;;;;;;5067364;28;20951;-76
2021/06/29 03:47:57;;;;;;;13.63;12.40;;;22.20;1.00;;;;;;5067339;28;20466;-76
2021/06/29 03:50:26;;;;;;;13.50;12.40;;;22.20;1.00;;;;;;5064529;28;20837;-76
2021/06/29 03:52:53;;;;;;;15.00;13.53;;;22.20;1.00;;;;;;5061445;28;20475;-76
2021/06/29 03:55:21;;;;;;;15.53;13.97;;;22.30;1.00;;;;;;5074927;28;20457;-76
2021/06/29 03:57:48;;;;;;;13.63;12.40;;;22.20;1.00;;;;;;5059511;28;20454;-76
2021/06/29 04:00:15;;;;;;;15.00;13.60;;;22.30;1.00;;;;;;5059575;28;20454;-76
2021/06/29 04:02:42;;;;;;;14.13;13.03;;;22.30;1.00;;;;;;5060443;28;20489;-76
2021/06/29 04:05:10;;;;;;;14.43;13.13;;;22.40;1.00;;;;;;5068637;28;20827;-76
2021/06/29 04:07:37;;;;;;;15.47;14.00;;;22.40;1.00;;;;;;5061217;28;21034;-76
2021/06/29 04:10:04;;;;;;;14.77;13.47;;;22.40;1.00;;;;;;5067687;28;20462;-76
2021/06/29 04:12:32;;;;;;;16.00;14.40;;;22.40;1.00;;;;;;5064923;28;20457;-75
2021/06/29 04:14:58;;;;;;;14.43;13.00;;;22.50;1.00;;;;;;5062979;28;20456;-75
2021/06/29 04:17:25;;;;;;;13.30;12.33;;;22.50;1.00;;;;;;5068385;28;20439;-76
2021/06/29 04:19:52;;;;;;;13.47;12.43;;;22.50;1.00;;;;;;5066297;28;20457;-76
2021/06/29 04:22:19;;;;;;;14.10;12.90;;;22.50;1.00;;;;;;5066402;28;20485;-76
2021/06/29 04:24:45;;;;;;;14.90;13.40;;;22.60;1.00;;;;;;5058669;28;21432;-76
2021/06/29 04:27:12;;;;;;;22.10;20.13;;;22.60;1.00;;;;;;5070307;28;20471;-76
2021/06/29 04:29:40;;;;;;;13.80;12.70;;;22.70;1.00;;;;;;5061855;28;20457;-76
2021/06/29 04:32:08;;;;;;;13.70;12.43;;;22.70;1.00;;;;;;5075076;28;20453;-76
2021/06/29 04:34:34;;;;;;;15.60;14.20;;;22.80;1.00;;;;;;5061781;28;20475;-76
2021/06/29 04:37:02;;;;;;;12.00;11.17;;;22.80;1.00;;;;;;5067061;28;20454;-76
2021/06/29 04:39:29;;;;;;;15.00;13.50;;;22.90;1.00;;;;;;5061657;28;20451;-76
2021/06/29 04:41:56;;;;;;;13.43;12.33;;;22.90;1.00;;;;;;5071549;28;20485;-76
2021/06/29 04:44:23;;;;;;;13.57;12.47;;;22.90;1.00;;;;;;5072163;28;20457;-76
2021/06/29 04:46:51;;;;;;;13.57;12.53;;;22.80;1.00;;;;;;5067682;28;20550;-76
2021/06/29 04:49:22;;;;;;;14.27;12.97;;;22.80;1.00;;;;;;5065884;28;20457;-75
2021/06/29 04:51:48;;;;;;;14.17;12.93;;;22.70;1.00;;;;;;5069713;28;20439;-76
2021/06/29 04:54:15;;;;;;;14.23;13.03;;;22.60;1.00;;;;;;5072315;28;20963;-76
2021/06/29 04:56:41;;;;;;;13.97;12.80;;;22.60;1.00;;;;;;5059565;28;20541;-76
2021/06/29 04:59:08;;;;;;;14.00;12.90;;;22.60;1.00;;;;;;5068660;28;21403;-76
2021/06/29 05:01:35;;;;;;;14.53;13.43;;;22.60;1.00;;;;;;5060638;28;20470;-77
2021/06/29 05:04:03;;;;;;;14.27;12.80;;;22.60;1.00;;;;;;5068804;28;20470;-77
2021/06/29 05:06:29;;;;;;;21.47;19.20;;;22.60;1.00;;;;;;5063375;28;20447;-77
2021/06/29 05:08:56;;;;;;;18.90;17.13;;;22.50;1.00;;;;;;5071272;28;20450;-76
2021/06/29 05:11:22;;;;;;;17.63;16.07;;;22.50;1.00;;;;;;5059738;28;21124;-77
2021/06/29 05:13:49;;;;;;;15.43;14.13;;;22.60;1.00;;;;;;5074690;28;20466;-76
2021/06/29 05:16:15;;;;;;;15.00;13.70;;;22.60;1.00;;;;;;5063375;28;20431;-77
2021/06/29 05:18:42;;;;;;;15.80;14.47;;;22.70;1.00;;;;;;5068720;28;20536;-76
2021/06/29 05:21:10;;;;;;;15.87;14.23;;;22.70;1.00;;;;;;5069324;28;20472;-76
2021/06/29 05:23:37;;;;;;;22.03;19.70;;;22.80;1.00;;;;;;5066188;28;20991;-77
2021/06/29 05:26:04;;;;;;;24.80;19.10;;;22.90;1.00;;;;;;5063676;28;20458;-75
2021/06/29 05:28:30;;;;;;;20.83;18.60;;;22.90;1.00;;;;;;5064875;28;20514;-76
2021/06/29 05:30:57;;;;;;;17.30;15.57;;;23.00;1.00;;;;;;5064129;28;20459;-76
2021/06/29 05:33:24;;;;;;;15.97;14.47;;;23.00;1.00;;;;;;5067946;28;20466;-75
2021/06/29 05:35:50;;;;;;;14.43;13.10;;;23.10;1.00;;;;;;5066417;28;20552;-76
2021/06/29 05:38:18;;;;;;;15.33;13.80;;;23.10;1.00;;;;;;5061295;28;20453;-76
2021/06/29 05:40:45;;;;;;;15.30;14.00;;;23.20;1.00;;;;;;5068581;28;20465;-76
2021/06/29 05:43:12;;;;;;;14.23;13.07;;;23.20;1.00;;;;;;5061572;28;20462;-75
2021/06/29 05:45:39;;;;;;;14.10;12.90;;;23.30;1.00;;;;;;5061997;28;21194;-76
2021/06/29 05:48:07;;;;;;;13.93;12.73;;;23.40;1.00;;;;;;5065415;28;21056;-77
2021/06/29 05:50:33;;;;;;;14.73;13.53;;;23.40;1.00;;;;;;5069389;28;20451;-77
2021/06/29 05:53:00;;;;;;;15.10;13.57;;;23.40;1.00;;;;;;5068646;28;20452;-77
2021/06/29 05:55:28;;;;;;;13.90;12.60;;;23.60;1.00;;;;;;5069225;28;20439;-77
2021/06/29 05:57:55;;;;;;;14.43;13.17;;;23.60;1.00;;;;;;5071576;28;20442;-76
2021/06/29 06:00:22;;;;;;;13.33;12.13;;;23.70;1.00;;;;;;5083559;28;20917;-77
2021/06/29 06:02:48;;;;;;;14.90;13.20;;;23.70;1.00;;;;;;5073184;28;20431;-77
2021/06/29 06:05:15;;;;;;;13.83;12.53;;;23.80;1.00;;;;;;5063780;28;20887;-77
2021/06/29 06:07:42;;;;;;;14.93;13.60;;;23.90;1.00;;;;;;5067849;28;20551;-77
2021/06/29 06:10:09;;;;;;;13.87;12.80;;;23.90;1.00;;;;;;5062440;28;20536;-77
2021/06/29 06:12:37;;;;;;;14.97;13.47;;;24.00;1.00;;;;;;5076076;28;20528;-77
2021/06/29 06:15:05;;;;;;;14.47;13.27;;;24.10;1.00;;;;;;5060285;28;20467;-77
2021/06/29 06:17:37;;;;;;;15.73;12.60;;;24.10;1.00;;;;;;5075819;28;20435;-77
2021/06/29 06:20:05;;;;;;;13.70;12.50;;;24.20;1.00;;;;;;5060583;28;21585;-77
2021/06/29 06:22:31;;;;;;;14.60;13.40;;;24.20;1.00;;;;;;5066840;28;20541;-77
2021/06/29 06:24:59;;;;;;;15.03;13.50;;;24.20;1.00;;;;;;5062975;28;21472;-77
2021/06/29 06:27:26;;;;;;;15.93;14.57;;;24.30;1.00;;;;;;5065810;28;20457;-75
2021/06/29 06:29:55;;;;;;;16.57;15.07;;;24.40;1.00;;;;;;5066619;28;20456;-75
2021/06/29 06:32:22;;;;;;;16.23;14.50;;;24.40;1.00;;;;;;5076453;28;20582;-77
2021/06/29 06:34:49;;;;;;;16.20;14.60;;;24.50;1.00;;;;;;5066385;28;20437;-77
2021/06/29 06:37:16;;;;;;;16.67;15.07;;;24.60;1.00;;;;;;5069498;28;20455;-77
2021/06/29 06:39:43;;;;;;;17.07;15.40;;;24.70;1.00;;;;;;5071053;28;21019;-76
2021/06/29 06:42:10;;;;;;;20.63;15.70;;;24.70;1.00;;;;;;5067465;28;20483;-77
2021/06/29 06:44:37;;;;;;;15.83;14.43;;;24.90;1.00;;;;;;5068212;28;20449;-77
2021/06/29 06:47:05;;;;;;;19.67;15.90;;;25.00;1.00;;;;;;5064097;28;21005;-77
2021/06/29 06:49:32;;;;;;;14.67;13.47;;;25.00;1.00;;;;;;5078023;28;20490;-77
2021/06/29 06:51:59;;;;;;;16.50;14.90;;;25.20;1.00;;;;;;5063315;28;20504;-76
2021/06/29 06:54:25;;;;;;;17.77;16.30;;;25.20;1.00;;;;;;5069114;28;20528;-75
2021/06/29 06:56:53;;;;;;;14.97;13.47;;;25.30;1.00;;;;;;5062103;28;21453;-75
2021/06/29 06:59:19;;;;;;;16.20;14.70;;;25.40;1.00;;;;;;5062352;28;20499;-75
2021/06/29 07:01:46;;;;;;;16.73;15.43;;;25.60;1.00;;;;;;5063759;28;20466;-76
2021/06/29 07:04:16;;;;;;;17.80;15.80;;;25.70;1.00;;;;;;5064727;28;20448;-77
2021/06/29 07:06:43;;;;;;;18.43;15.60;;;25.90;1.00;;;;;;5068451;28;20428;-75
2021/06/29 07:09:10;;;;;;;17.77;15.70;;;26.00;1.00;;;;;;5063458;28;20454;-77
2021/06/29 07:11:36;;;;;;;18.47;16.77;;;26.10;1.00;;;;;;5069586;28;20454;-77
2021/06/29 07:14:03;;;;;;;18.47;16.47;;;26.20;1.00;;;;;;5060442;28;20448;-76
2021/06/29 07:16:30;;;;;;;16.23;14.63;;;26.40;1.00;;;;;;5064815;28;20440;-77
2021/06/29 07:18:56;;;;;;;15.60;14.30;;;26.60;1.00;;;;;;5069142;28;20544;-77
2021/06/29 07:21:27;;;;;;;16.70;15.17;;;26.70;1.00;;;;;;5080999;28;20531;-77
2021/06/29 07:23:54;;;;;;;15.97;14.53;;;26.70;1.00;;;;;;5063850;28;20435;-77
2021/06/29 07:26:20;;;;;;;20.80;16.80;;;26.70;1.00;;;;;;5068982;28;21264;-77
2021/06/29 07:28:47;;;;;;;16.93;15.37;;;27.00;1.00;;;;;;5057740;28;20502;-77
2021/06/29 07:31:16;;;;;;;15.43;14.17;;;27.20;1.00;;;;;;5060784;28;20461;-77
2021/06/29 07:33:42;;;;;;;16.40;15.00;;;27.40;1.00;;;;;;5058336;28;20523;-77
2021/06/29 07:36:11;;;;;;;17.00;15.63;;;27.70;1.00;;;;;;5066230;28;20229;-77
2021/06/29 07:38:40;;;;;;;16.13;14.70;;;27.70;1.00;;;;;;5061287;28;20444;-77
2021/06/29 07:41:06;;;;;;;14.83;13.43;;;27.70;1.00;;;;;;5066156;28;20584;-77
2021/06/29 07:43:33;;;;;;;14.53;13.20;;;27.90;1.00;;;;;;5069191;28;20566;-77
2021/06/29 07:46:00;;;;;;;14.77;13.40;;;27.80;1.00;;;;;;5057977;28;20442;-76
2021/06/29 07:48:27;;;;;;;14.57;13.33;;;27.90;1.00;;;;;;5072026;28;20465;-77
2021/06/29 07:50:54;;;;;;;15.13;13.70;;;28.10;1.00;;;;;;5057853;28;20899;-76
2021/06/29 07:53:21;;;;;;;15.40;14.10;;;28.30;1.00;;;;;;5072661;28;20445;-77
2021/06/29 07:55:50;;;;;;;16.43;14.97;;;28.40;1.00;;;;;;5057285;28;20504;-77
2021/06/29 07:58:16;;;;;;;15.53;14.13;;;28.60;1.00;;;;;;5063508;28;20493;-77
2021/06/29 08:00:43;;;;;;;14.80;13.40;;;28.80;1.00;;;;;;5062826;28;20462;-77
2021/06/29 08:03:10;;;;;;;13.63;12.53;;;29.00;1.00;;;;;;5072814;28;20474;-77
2021/06/29 08:05:37;;;;;;;15.17;13.73;;;29.20;1.00;;;;;;5070772;28;20548;-77
2021/06/29 08:08:06;;;;;;;14.77;13.40;;;29.40;1.00;;;;;;5073393;28;20452;-76
2021/06/29 08:10:32;;;;;;;14.90;13.50;;;29.50;1.00;;;;;;5073124;28;20502;-76
2021/06/29 08:13:00;;;;;;;15.83;14.33;;;29.70;1.00;;;;;;5066918;28;21270;-76
2021/06/29 08:15:27;;;;;;;16.37;13.30;;;29.80;1.00;;;;;;5071145;28;20458;-76
2021/06/29 08:17:54;;;;;;;13.97;12.73;;;29.80;1.00;;;;;;5065478;28;20446;-76
2021/06/29 08:20:21;;;;;;;15.50;14.10;;;29.90;1.00;;;;;;5069031;28;20940;-76
2021/06/29 08:22:49;;;;;;;17.40;13.67;;;30.10;1.00;;;;;;5064998;28;20466;-76
2021/06/29 08:25:16;;;;;;;14.97;12.90;;;30.30;1.00;;;;;;5074552;28;20491;-76
2021/06/29 08:27:43;;;;;;;13.67;12.37;;;30.40;1.00;;;;;;5066545;28;20449;-76
2021/06/29 08:30:12;;;;;;;11.30;10.30;;;30.60;1.00;;;;;;5072050;28;20460;-77
2021/06/29 08:32:39;;;;;;;12.73;11.53;;;30.40;1.00;;;;;;5066546;28;22199;-76
2021/06/29 08:35:07;;;;;;;11.53;10.43;;;30.30;1.00;;;;;;5074144;28;20550;-76
2021/06/29 08:37:33;;;;;;;12.30;11.20;;;30.50;1.00;;;;;;5067357;28;20528;-77
2021/06/29 08:40:00;;;;;;;11.73;10.83;;;30.60;1.00;;;;;;5064712;28;20439;-76
2021/06/29 08:42:29;;;;;;;10.50;9.70;;;30.90;1.00;;;;;;5069078;28;20530;-76
2021/06/29 08:44:56;;;;;;;12.20;11.00;;;31.10;1.00;;;;;;5068186;28;20484;-76
2021/06/29 08:47:24;;;;;;;12.30;11.20;;;31.30;1.00;;;;;;5071015;28;21715;-76
2021/06/29 08:49:51;;;;;;;11.47;10.50;;;31.30;1.00;;;;;;5060798;28;21045;-76
2021/06/29 08:52:17;;;;;;;14.73;11.47;;;31.50;1.00;;;;;;5076842;28;20524;-77
2021/06/29 08:54:45;;;;;;;10.73;10.00;;;31.60;1.00;;;;;;5063220;28;20439;-76
2021/06/29 08:57:12;;;;;;;11.13;10.23;;;31.70;1.00;;;;;;5067053;28;20467;-77
2021/06/29 08:59:41;;;;;;;10.53;9.70;;;31.60;1.00;;;;;;5063999;28;20472;-77
2021/06/29 09:02:07;;;;;;;10.80;9.80;;;31.60;1.00;;;;;;5077280;28;20498;-77
2021/06/29 09:04:49;;;;;;;10.83;9.87;;;31.50;1.00;;;;;;5071589;28;20466;-76
2021/06/29 09:07:18;;;;;;;12.90;10.30;;;31.50;1.00;;;;;;5069758;28;20936;-76
2021/06/29 09:09:48;;;;;;;11.63;10.53;;;31.50;1.00;;;;;;5060037;28;20472;-76
2021/06/29 09:12:48;;;;;;;11.40;10.30;;;31.50;1.00;;;;;;5066074;28;20435;-76
2021/06/29 09:15:30;;;;;;;11.77;10.77;;;31.60;1.00;;;;;;5066261;28;20451;-76
2021/06/29 09:17:59;;;;;;;12.97;11.97;;;31.60;1.00;;;;;;5060889;28;20997;-77
2021/06/29 09:20:30;;;;;;;12.37;11.10;;;31.60;1.00;;;;;;5070611;28;20469;-77
2021/06/29 09:22:58;;;;;;;11.40;9.77;;;31.70;1.00;;;;;;5063420;28;20998;-77
2021/06/29 09:25:27;;;;;;;13.80;12.80;;;31.70;1.00;;;;;;5071943;28;20881;-76
2021/06/29 09:27:54;;;;;;;12.00;11.10;;;31.90;1.00;;;;;;5064330;28;20445;-76
2021/06/29 09:30:33;;;;;;;12.20;11.13;;;31.80;1.00;;;;;;5068011;28;20456;-77
2021/06/29 09:33:01;;;;;;;11.53;10.73;;;31.30;1.00;;;;;;5068637;28;21565;-76
2021/06/29 09:35:29;;;;;;;13.27;12.13;;;31.20;1.00;;;;;;5068231;28;20453;-77
2021/06/29 09:37:56;;;;;;;12.37;11.10;;;30.80;1.00;;;;;;5069111;28;20904;-76
2021/06/29 09:40:26;;;;;;;11.60;10.50;;;30.80;1.00;;;;;;5063556;28;20650;-76
2021/06/29 09:42:53;;;;;;;11.53;10.63;;;30.90;1.00;;;;;;5068610;28;20451;-76
2021/06/29 09:45:33;;;;;;;12.17;10.90;;;30.90;1.00;;;;;;5065969;28;20464;-76
2021/06/29 09:48:01;;;;;;;12.03;11.07;;;30.90;1.00;;;;;;5074362;28;20461;-76
2021/06/29 09:50:37;;;;;;;11.57;10.67;;;30.90;1.00;;;;;;5063308;28;20463;-76
2021/06/29 09:53:25;;;;;;;11.17;10.27;;;30.90;1.00;;;;;;5076181;28;20429;-76
2021/06/29 09:55:55;;;;;;;14.70;13.27;;;30.80;1.00;;;;;;5066241;28;20547;-77
2021/06/29 09:58:24;;;;;;;12.40;11.47;;;31.00;1.00;;;;;;5069628;28;20877;-77
2021/06/29 10:00:53;;;;;;;12.37;11.27;;;31.20;1.00;;;;;;5066303;28;21017;-75
2021/06/29 10:03:23;;;;;;;12.50;11.53;;;31.30;1.00;;;;;;5062096;28;21086;-76
2021/06/29 10:05:52;;;;;;;15.10;12.50;;;31.40;1.00;;;;;;5069844;28;20897;-76
2021/06/29 10:08:34;;;;;;;12.40;11.20;;;31.50;1.00;;;;;;5062880;28;20447;-77
2021/06/29 10:11:05;;;;;;;12.30;11.30;;;31.70;1.00;;;;;;5072327;28;21386;-77
2021/06/29 10:13:36;;;;;;;12.43;11.40;;;31.90;1.00;;;;;;5059984;28;20436;-76
2021/06/29 10:16:04;;;;;;;12.43;11.30;;;32.20;1.00;;;;;;5071795;28;20494;-77
2021/06/29 10:18:33;;;;;;;11.70;10.87;;;32.60;1.00;;;;;;5063371;28;20459;-76
2021/06/29 10:21:03;;;;;;;10.63;9.83;;;33.30;1.00;;;;;;5066595;28;21021;-77
2021/06/29 10:23:30;;;;;;;12.23;11.23;;;34.00;1.00;;;;;;5063653;28;20447;-77
2021/06/29 10:25:58;;;;;;;12.33;11.23;;;34.80;1.00;;;;;;5073164;28;20897;-76
2021/06/29 10:28:26;;;;;;;11.27;10.50;;;35.30;1.00;;;;;;5071509;28;20489;-76
2021/06/29 10:30:54;;;;;;;13.40;12.30;;;35.60;1.00;;;;;;5063003;28;20439;-76
2021/06/29 10:33:21;;;;;;;10.90;10.20;;;34.90;1.00;;;;;;5069761;28;20420;-75
2021/06/29 10:35:48;;;;;;;11.00;10.13;;;34.50;1.00;;;;;;5067674;28;20540;-77
2021/06/29 10:38:16;;;;;;;11.87;11.07;;;34.00;1.00;;;;;;5065407;28;20404;-76
2021/06/29 10:40:43;;;;;;;12.30;11.40;;;33.40;1.00;;;;;;5063480;28;20459;-77
2021/06/29 10:43:10;;;;;;;11.37;10.47;;;32.80;1.00;;;;;;5080107;28;20431;-77
2021/06/29 10:45:39;;;;;;;12.43;11.30;;;32.30;1.00;;;;;;5063754;28;20451;-76
2021/06/29 10:48:23;;;;;;;11.53;10.73;;;32.20;1.00;;;;;;5069907;28;20458;-77
2021/06/29 10:50:51;;;;;;;11.80;10.80;;;31.90;1.00;;;;;;5064431;28;20562;-76
2021/06/29 10:53:35;;;;;;;32.87;13.90;;;31.50;1.00;;;;;;5068733;28;20525;-76
2021/06/29 10:56:03;;;;;;;13.13;11.67;;;31.50;1.00;;;;;;5072617;28;20451;-76
2021/06/29 10:58:41;;;;;;;12.33;11.37;;;31.50;1.00;;;;;;5062053;28;20453;-77
2021/06/29 11:01:30;;;;;;;12.63;11.43;;;31.40;1.00;;;;;;5067919;28;21102;-76
2021/06/29 11:03:59;;;;;;;11.73;10.63;;;31.20;1.00;;;;;;5062754;28;20469;-77
2021/06/29 11:06:46;;;;;;;12.47;11.47;;;31.10;1.00;;;;;;5061638;28;20523;-76
2021/06/29 11:09:17;;;;;;;13.87;12.77;;;30.70;1.00;;;;;;5059886;28;20550;-76
2021/06/29 11:12:18;;;;;;;11.20;10.30;;;30.50;1.00;;;;;;5063093;28;20570;-76
2021/06/29 11:14:48;;;;;;;12.30;11.40;;;30.30;1.00;;;;;;5071967;28;20521;-76
2021/06/29 11:17:16;;;;;;;13.77;12.43;;;30.10;1.00;;;;;;5061901;28;20538;-76
2021/06/29 11:20:09;;;;;;;18.30;8.67;;;30.00;1.00;;;;;;5073412;28;20445;-77
2021/06/29 11:22:53;;;;;;;10.17;6.77;;;29.20;1.00;;;;;;5065207;28;20458;-77
2021/06/29 11:25:42;;;;;;;7.07;6.40;;;28.30;1.00;;;;;;5062258;28;20984;-76
2021/06/29 11:28:12;;;;;;;7.47;6.73;;;27.80;1.00;;;;;;5077581;28;20469;-77
2021/06/29 11:31:04;;;;;;;7.87;7.27;;;27.80;1.00;;;;;;5062342;28;20531;-77
2021/06/29 11:33:37;;;;;;;9.23;8.33;;;28.20;1.00;;;;;;5057956;28;20531;-76
2021/06/29 11:36:05;;;;;;;9.67;8.97;;;28.70;1.00;;;;;;5066745;28;20431;-78
2021/06/29 11:38:35;;;;;;;10.53;9.43;;;29.50;1.00;;;;;;5065546;28;20442;-77
2021/06/29 11:41:28;;;;;;;9.70;8.90;;;30.40;1.00;;;;;;5061806;28;21359;-77
2021/06/29 11:43:57;;;;;;;11.27;10.27;;;31.60;1.00;;;;;;5064935;28;20425;-76
2021/06/29 11:46:47;;;;;;;11.17;10.27;;;32.90;1.00;;;;;;5070089;28;20419;-77
2021/06/29 11:49:15;;;;;;;12.60;11.70;;;33.80;1.00;;;;;;5058883;28;20467;-76
2021/06/29 11:51:52;;;;;;;12.20;11.20;;;34.30;1.00;;;;;;5074500;28;20443;-76
2021/06/29 11:54:27;;;;;;;11.87;10.80;;;34.70;1.00;;;;;;5062241;28;20451;-76
2021/06/29 11:56:58;;;;;;;11.80;10.90;;;35.00;1.00;;;;;;5064203;28;20509;-77
2021/06/29 11:59:26;;;;;;;12.47;11.37;;;35.30;1.00;;;;;;5068743;28;20459;-76
2021/06/29 12:02:00;;;;;;;13.00;11.63;;;35.50;1.00;;;;;;5062332;28;20446;-76
2021/06/29 12:04:27;;;;;;;12.47;11.50;;;35.40;1.00;;;;;;5064458;28;20506;-78
2021/06/29 12:07:02;;;;;;;13.03;11.67;;;35.30;1.00;;;;;;5066584;28;20490;-76
2021/06/29 12:09:30;;;;;;;13.30;12.20;;;35.10;1.00;;;;;;5071372;28;20536;-75
2021/06/29 12:12:17;;;;;;;12.20;11.30;;;35.20;1.00;;;;;;5066324;28;20513;-75
2021/06/29 12:14:43;;;;;;;13.20;12.10;;;34.90;1.00;;;;;;5088645;28;20455;-75
2021/06/29 12:17:10;;;;;;;12.73;11.43;;;34.50;1.00;;;;;;5065088;28;20961;-76
2021/06/29 12:19:37;;;;;;;13.97;13.00;;;34.30;1.00;;;;;;5069494;28;20483;-74
2021/06/29 12:22:04;;;;;;;15.77;14.47;;;34.30;1.00;;;;;;5064981;28;21009;-76
2021/06/29 12:24:31;;;;;;;16.07;14.70;;;34.40;1.00;;;;;;5065897;28;20573;-76
2021/06/29 12:26:57;;;;;;;14.93;13.50;;;34.40;1.00;;;;;;5066606;28;20438;-75
2021/06/29 12:29:37;;;;;;;15.03;13.83;;;34.20;1.00;;;;;;5065288;28;21362;-75
2021/06/29 12:32:15;;;;;;;15.40;14.30;;;34.00;1.00;;;;;;5068961;28;20435;-76
2021/06/29 12:34:41;;;;;;;15.80;14.60;;;33.70;1.00;;;;;;5057395;28;20446;-75
2021/06/29 12:37:08;;;;;;;17.30;15.90;;;33.50;1.00;;;;;;5069459;28;20449;-75
2021/06/29 12:39:35;;;;;;;16.40;15.13;;;33.30;1.00;;;;;;5060690;28;21320;-76
2021/06/29 12:42:09;;;;;;;16.40;15.20;;;33.20;1.00;;;;;;5068275;28;21160;-75
2021/06/29 12:44:37;;;;;;;17.40;16.00;;;33.10;1.00;;;;;;5059092;28;20545;-76
2021/06/29 12:47:05;;;;;;;16.07;14.93;;;32.80;1.00;;;;;;5064795;28;20536;-76
2021/06/29 12:49:33;;;;;;;16.10;14.90;;;32.60;1.00;;;;;;5070741;28;20488;-76
2021/06/29 12:52:08;;;;;;;15.97;14.43;;;32.50;1.00;;;;;;5066064;28;20453;-76